Wiley, Georgia
Current Conditions -  °F | °C
As of 8:15 AM on Thursday 27 Nov 2014 (Local Time) from KTOC Reporting Station
Broken Clouds Broken Clouds  
Wind Chill: 38°   Ceiling: 6000
Heat Index: 42°   Visibility: 10mi
Dew Point: 28°   Wind: 8mph
Humidity: 57%   Direction: 300°WNW
Pressure: 30.12"   Gusts: NA
Location:  34.8°N, 83.42°W
Report Text: KTOC 271315Z AUTO 30007KT 10SM SCT048 BKN060 06/M02 A3012 RMK AO2 T00581021
Loading
Personal Weather Stations






























Interactive Weather Map New forecast layout! Learn more

10-Day Weather Forecast

Advertisements
Track Severe Weather on mobile